Terminal Aerodrome Forecast
Issued by NWS Boston, MA

Home | Current Version | Previous Version | Text Only | Print | Product List | Glossary On
Versions: 1 2 3 4 5 6 7 8 9 10 11 12 13 14 15 16 17 18 19 20 21 22 23 24
000
FTUS41 KBOX 261120
TAFORH
TAF
KORH 261120Z 2612/2712 04008KT P6SM FEW250
     FM261800 09009KT P6SM OVC050
     FM262000 09007KT P6SM VCSH OVC035
     FM262300 10006KT P6SM OVC045
     FM270300 10006KT 5SM BR VCSH OVC035
     FM270900 10006KT 4SM -FZRAPL OVC010=

USA.gov is the U.S. government's official web portal to all federal, state and local government web resources and services.